createdAt,value
2023-02-08T00:01:10.512Z,17.08
2023-02-08T00:03:43.453Z,18.70
2023-02-08T00:08:55.170Z,18.55
2023-02-08T00:11:28.008Z,19.33
2023-02-08T00:14:00.770Z,19.92
2023-02-08T00:16:34.864Z,23.75
2023-02-08T00:19:07.787Z,19.05
2023-02-08T00:24:13.486Z,18.38
2023-02-08T00:29:18.937Z,14.32
2023-02-08T00:34:26.272Z,18.20
2023-02-08T00:36:58.959Z,17.50
2023-02-08T00:39:32.156Z,20.48
2023-02-08T00:42:05.257Z,20.88
2023-02-08T00:44:38.727Z,21.10
2023-02-08T00:47:13.162Z,22.45
2023-02-08T00:49:45.883Z,23.35
2023-02-08T00:52:20.515Z,19.65
2023-02-08T00:54:53.441Z,16.60
2023-02-08T00:59:58.848Z,14.27
2023-02-08T01:02:33.013Z,21.55
2023-02-08T01:05:06.812Z,20.15
2023-02-08T01:07:39.896Z,18.92
2023-02-08T01:10:12.990Z,19.73
2023-02-08T01:12:47.044Z,19.80
2023-02-08T01:15:20.000Z,19.70
2023-02-08T01:17:56.346Z,20.95
2023-02-08T01:20:30.108Z,20.65
2023-02-08T01:23:03.291Z,19.73
2023-02-08T01:25:36.074Z,20.52
2023-02-08T01:28:08.935Z,19.55
2023-02-08T01:30:42.334Z,18.85
2023-02-08T01:33:16.943Z,20.77
2023-02-08T01:35:52.142Z,21.17
2023-02-08T01:38:25.091Z,19.73
2023-02-08T01:40:58.109Z,20.90
2023-02-08T01:46:05.926Z,20.75
2023-02-08T01:48:42.227Z,21.92
2023-02-08T01:51:25.622Z,20.83
2023-02-08T01:54:01.188Z,18.52
2023-02-08T01:56:37.176Z,19.60
2023-02-08T01:59:14.737Z,20.48
2023-02-08T02:01:49.801Z,19.63
2023-02-08T02:04:24.149Z,20.63
2023-02-08T02:07:00.217Z,21.52
2023-02-08T02:09:41.009Z,24.55
2023-02-08T02:12:14.994Z,18.45
2023-02-08T02:14:48.378Z,20.52
2023-02-08T02:17:21.678Z,19.88
2023-02-08T02:20:04.344Z,22.02
2023-02-08T02:23:13.210Z,22.85
2023-02-08T02:26:26.144Z,19.17
2023-02-08T02:29:27.520Z,18.35
2023-02-08T02:32:12.480Z,18.65
2023-02-08T02:34:51.012Z,16.38
2023-02-08T02:37:41.959Z,19.92
2023-02-08T02:40:22.953Z,18.90
2023-02-08T02:43:21.584Z,19.30
2023-02-08T02:46:00.823Z,18.17
2023-02-08T02:48:42.418Z,20.27
2023-02-08T02:51:21.391Z,18.65
2023-02-08T02:53:57.726Z,20.50
2023-02-08T02:56:34.607Z,18.30
2023-02-08T02:59:09.755Z,20.30
2023-02-08T03:04:52.083Z,18.65
2023-02-08T03:07:40.994Z,20.35
2023-02-08T03:10:25.765Z,19.67
2023-02-08T03:13:05.599Z,18.85
2023-02-08T03:15:47.328Z,20.60
2023-02-08T03:18:31.570Z,22.20
2023-02-08T03:21:13.019Z,21.40
2023-02-08T03:23:54.143Z,20.98
2023-02-08T03:26:36.850Z,16.98
2023-02-08T03:29:16.546Z,21.02
2023-02-08T03:31:55.270Z,18.63
2023-02-08T03:34:32.829Z,17.70
2023-02-08T03:37:11.384Z,21.35
2023-02-08T03:39:46.436Z,17.90
2023-02-08T03:42:24.058Z,19.52
2023-02-08T03:45:01.363Z,17.90
2023-02-08T03:47:38.611Z,18.42
2023-02-08T03:50:17.377Z,20.13
2023-02-08T03:52:53.378Z,18.85
2023-02-08T03:55:30.584Z,15.98
2023-02-08T03:58:07.662Z,16.83
2023-02-08T04:00:44.060Z,19.63
2023-02-08T04:03:21.072Z,23.10
2023-02-08T04:05:54.064Z,22.92
2023-02-08T04:08:28.282Z,20.73
2023-02-08T04:11:01.412Z,22.90
2023-02-08T04:13:34.055Z,20.15
2023-02-08T04:16:07.379Z,19.30
2023-02-08T04:18:40.132Z,16.05
2023-02-08T04:21:12.962Z,20.85
2023-02-08T04:26:19.687Z,19.48
2023-02-08T04:31:25.120Z,20.52
2023-02-08T04:36:31.034Z,18.45
2023-02-08T04:39:05.194Z,19.30
2023-02-08T04:41:38.115Z,18.33
2023-02-08T04:44:10.909Z,19.13
2023-02-08T04:46:43.657Z,21.20
2023-02-08T04:51:49.332Z,20.75
2023-02-08T04:56:56.404Z,21.83
2023-02-08T04:59:29.318Z,22.33
2023-02-08T05:04:35.125Z,22.02
2023-02-08T05:07:07.832Z,19.30
2023-02-08T05:09:41.854Z,19.80
2023-02-08T05:12:14.714Z,20.58
2023-02-08T05:17:20.220Z,19.88
2023-02-08T05:22:27.777Z,23.42
2023-02-08T05:27:35.464Z,21.50
2023-02-08T05:30:09.478Z,22.25
2023-02-08T05:32:42.358Z,18.73
2023-02-08T05:37:47.681Z,22.25
2023-02-08T05:42:54.493Z,20.88
2023-02-08T05:45:27.229Z,20.98
2023-02-08T05:50:32.578Z,23.08
2023-02-08T05:55:39.735Z,26.52
2023-02-08T05:58:13.219Z,22.35
2023-02-08T06:00:46.326Z,21.20
2023-02-08T06:03:19.147Z,20.38
2023-02-08T06:05:51.870Z,22.35
2023-02-08T06:08:24.527Z,20.48
2023-02-08T06:10:58.843Z,21.95
2023-02-08T06:13:31.814Z,20.77
2023-02-08T06:18:37.097Z,20.27
2023-02-08T06:21:10.034Z,21.20
2023-02-08T06:23:42.739Z,20.02
2023-02-08T06:26:16.846Z,26.05
2023-02-08T06:28:49.599Z,18.83
2023-02-08T06:31:22.527Z,21.23
2023-02-08T06:33:55.329Z,20.08
2023-02-08T06:36:28.257Z,18.98
2023-02-08T06:39:01.065Z,21.85
2023-02-08T06:41:35.102Z,23.67
2023-02-08T06:44:07.880Z,18.33
2023-02-08T06:46:40.553Z,19.35
2023-02-08T06:51:46.098Z,20.00
2023-02-08T06:56:54.508Z,19.23
2023-02-08T06:59:27.280Z,21.20
2023-02-08T07:02:01.307Z,23.90
2023-02-08T07:04:34.270Z,21.83
2023-02-08T07:09:40.362Z,19.45
2023-02-08T07:12:14.472Z,21.88
2023-02-08T07:14:47.401Z,20.70
2023-02-08T07:17:20.074Z,21.23
2023-02-08T07:19:52.878Z,20.45
2023-02-08T07:24:58.218Z,25.05
2023-02-08T07:27:32.233Z,21.55
2023-02-08T07:30:05.778Z,22.42
2023-02-08T07:32:38.459Z,21.35
2023-02-08T07:35:11.335Z,23.67
2023-02-08T07:37:44.045Z,21.73
2023-02-08T07:40:17.102Z,20.90
2023-02-08T07:42:51.351Z,21.30
2023-02-08T07:45:38.755Z,23.70
2023-02-08T07:48:11.712Z,23.08
2023-02-08T07:50:44.473Z,19.00
2023-02-08T07:53:17.826Z,23.50
2023-02-08T07:55:50.567Z,22.45
2023-02-08T07:58:24.757Z,25.05
2023-02-08T08:00:57.982Z,26.67
2023-02-08T08:03:30.758Z,22.35
2023-02-08T08:06:03.593Z,22.52
2023-02-08T08:11:09.337Z,17.88
2023-02-08T08:13:43.770Z,24.45
2023-02-08T08:16:17.223Z,21.63
2023-02-08T08:18:50.782Z,20.30
2023-02-08T08:21:23.634Z,22.02
2023-02-08T08:26:29.796Z,23.92
2023-02-08T08:29:04.014Z,26.25
2023-02-08T08:31:38.540Z,30.05
2023-02-08T08:34:11.414Z,22.33
2023-02-08T08:39:17.314Z,24.52
2023-02-08T08:41:50.139Z,27.20
2023-02-08T08:44:24.160Z,23.20
2023-02-08T08:46:57.852Z,21.80
2023-02-08T08:49:30.658Z,23.13
2023-02-08T08:54:37.656Z,22.05
2023-02-08T08:57:12.053Z,25.83
2023-02-08T08:59:46.659Z,24.25
2023-02-08T09:02:19.586Z,24.83
2023-02-08T09:04:52.470Z,25.60
2023-02-08T09:10:02.104Z,31.27
2023-02-08T09:12:35.161Z,29.02
2023-02-08T09:15:09.920Z,26.48
2023-02-08T09:17:45.817Z,26.42
2023-02-08T09:20:18.781Z,28.98
2023-02-08T09:25:26.588Z,26.67
2023-02-08T09:27:59.571Z,24.83
2023-02-08T09:30:34.888Z,27.50
2023-02-08T09:33:07.719Z,26.70
2023-02-08T09:38:13.494Z,27.05
2023-02-08T09:43:32.922Z,26.92
2023-02-08T09:46:12.502Z,24.83
2023-02-08T09:48:46.948Z,26.23
2023-02-08T09:51:28.072Z,34.95
2023-02-08T09:54:06.145Z,28.00
2023-02-08T09:56:42.331Z,28.38
2023-02-08T09:59:20.324Z,26.30
2023-02-08T10:02:00.267Z,30.80
2023-02-08T10:04:42.393Z,34.53
2023-02-08T10:07:15.165Z,30.00
2023-02-08T10:09:48.014Z,30.63
2023-02-08T10:15:09.122Z,30.05
2023-02-08T10:18:07.174Z,27.88
2023-02-08T10:20:56.639Z,29.35
2023-02-08T10:23:45.114Z,31.05
2023-02-08T10:26:33.141Z,28.40
2023-02-08T10:29:41.461Z,28.58
2023-02-08T10:32:51.199Z,30.23
2023-02-08T10:35:32.165Z,34.38
2023-02-08T10:38:25.248Z,33.42
2023-02-08T10:43:41.792Z,38.45
2023-02-08T10:46:25.467Z,39.33
2023-02-08T10:49:08.394Z,42.50
2023-02-08T10:51:55.210Z,41.15
2023-02-08T10:54:28.637Z,38.15
2023-02-08T10:59:49.301Z,37.83
2023-02-08T11:02:26.486Z,43.05
2023-02-08T11:05:00.879Z,35.15
2023-02-08T11:07:37.557Z,40.42
2023-02-08T11:10:24.200Z,48.88
2023-02-08T11:15:54.075Z,41.35
2023-02-08T11:18:33.482Z,46.40
2023-02-08T11:21:29.498Z,50.83
2023-02-08T11:24:28.090Z,47.92
2023-02-08T11:27:04.372Z,48.90
2023-02-08T11:29:46.205Z,43.03
2023-02-08T11:32:24.102Z,45.75
2023-02-08T11:35:13.416Z,44.00
2023-02-08T11:37:50.137Z,37.45
2023-02-08T11:40:37.849Z,45.47
2023-02-08T11:43:22.670Z,43.25
2023-02-08T11:45:58.296Z,46.15
2023-02-08T11:48:42.152Z,46.15
2023-02-08T11:51:25.150Z,40.85
2023-02-08T11:54:00.602Z,47.80
2023-02-08T11:56:36.075Z,49.03
2023-02-08T11:59:21.086Z,41.30
2023-02-08T12:01:54.066Z,42.55
2023-02-08T12:04:27.618Z,45.60
2023-02-08T12:07:26.600Z,46.63
2023-02-08T12:10:19.869Z,48.33
2023-02-08T12:13:13.649Z,43.00
2023-02-08T12:15:59.177Z,39.28
2023-02-08T12:18:45.428Z,36.30
2023-02-08T12:21:23.096Z,45.67
2023-02-08T12:23:58.651Z,37.70
2023-02-08T12:26:59.956Z,41.42
2023-02-08T12:29:48.348Z,43.03
2023-02-08T12:32:35.816Z,41.45
2023-02-08T12:35:45.734Z,46.95
2023-02-08T12:38:54.104Z,49.17
2023-02-08T12:41:33.188Z,50.88
2023-02-08T12:44:12.886Z,45.17
2023-02-08T12:46:56.528Z,44.67
2023-02-08T12:49:51.206Z,46.63
2023-02-08T12:52:35.229Z,50.20
2023-02-08T12:55:19.954Z,43.25
2023-02-08T12:57:58.336Z,49.35
2023-02-08T13:00:37.246Z,46.70
2023-02-08T13:03:22.050Z,52.80
2023-02-08T13:06:01.975Z,52.72
2023-02-08T13:08:41.248Z,53.15
2023-02-08T13:11:22.008Z,46.47
2023-02-08T13:13:59.910Z,46.83
2023-02-08T13:16:36.993Z,46.70
2023-02-08T13:19:31.873Z,42.58
2023-02-08T13:22:06.105Z,47.55
2023-02-08T13:24:44.512Z,46.58
2023-02-08T13:27:19.588Z,42.42
2023-02-08T13:29:53.703Z,37.28
2023-02-08T13:32:30.222Z,35.33
2023-02-08T13:35:14.058Z,44.17
2023-02-08T13:37:52.783Z,45.10
2023-02-08T13:40:29.276Z,41.25
2023-02-08T13:43:05.306Z,43.90
2023-02-08T13:45:43.391Z,42.00
2023-02-08T13:48:18.882Z,38.47
2023-02-08T13:50:54.822Z,39.97
2023-02-08T13:54:01.180Z,39.65
2023-02-08T13:56:41.315Z,37.38
2023-02-08T13:59:38.536Z,40.03
2023-02-08T14:02:27.164Z,40.50
2023-02-08T14:05:39.852Z,38.40
2023-02-08T14:08:24.002Z,39.50
2023-02-08T14:11:07.868Z,41.45
2023-02-08T14:13:49.068Z,33.33
2023-02-08T14:16:31.846Z,37.88
2023-02-08T14:19:07.603Z,38.45
2023-02-08T14:21:45.785Z,32.85
2023-02-08T14:24:25.998Z,34.17
2023-02-08T14:27:09.600Z,36.33
2023-02-08T14:29:43.058Z,34.30
2023-02-08T14:32:25.361Z,34.00
2023-02-08T14:35:06.824Z,35.88
2023-02-08T14:37:41.216Z,35.08
2023-02-08T14:40:48.147Z,37.55
2023-02-08T14:43:34.859Z,37.65
2023-02-08T14:46:44.930Z,35.38
2023-02-08T14:49:20.244Z,35.45
2023-02-08T14:51:58.953Z,28.40
2023-02-08T14:54:39.646Z,33.03
2023-02-08T14:57:26.087Z,33.70
2023-02-08T15:00:08.349Z,29.65
2023-02-08T15:02:45.539Z,31.23
2023-02-08T15:05:25.423Z,30.92
2023-02-08T15:08:03.929Z,32.05
2023-02-08T15:10:44.847Z,30.75
2023-02-08T15:13:24.301Z,29.73
2023-02-08T15:15:58.518Z,31.42
2023-02-08T15:18:39.708Z,31.67
2023-02-08T15:21:19.178Z,30.23
2023-02-08T15:24:05.530Z,28.25
2023-02-08T15:26:45.015Z,27.23
2023-02-08T15:29:39.149Z,32.47
2023-02-08T15:32:18.746Z,31.08
2023-02-08T15:37:47.727Z,27.05
2023-02-08T15:40:26.385Z,28.73
2023-02-08T15:43:05.558Z,29.05
2023-02-08T15:45:40.320Z,30.80
2023-02-08T15:48:14.370Z,25.98
2023-02-08T15:50:47.698Z,29.20
2023-02-08T15:53:24.386Z,28.50
2023-02-08T15:56:02.027Z,27.48
2023-02-08T15:58:45.273Z,25.48
2023-02-08T16:01:22.181Z,24.77
2023-02-08T16:04:01.820Z,26.83
2023-02-08T16:06:42.083Z,27.95
2023-02-08T16:09:21.454Z,22.58
2023-02-08T16:11:59.317Z,28.27
2023-02-08T16:14:50.672Z,24.83
2023-02-08T16:17:38.674Z,27.60
2023-02-08T16:20:30.153Z,25.95
2023-02-08T16:23:22.930Z,22.20
2023-02-08T16:25:57.756Z,27.05
2023-02-08T16:28:34.954Z,22.17
2023-02-08T16:31:09.115Z,23.30
2023-02-08T16:36:40.944Z,25.67
2023-02-08T16:39:52.784Z,23.63
2023-02-08T16:42:35.970Z,24.88
2023-02-08T16:47:54.084Z,24.23
2023-02-08T16:50:32.304Z,26.33
2023-02-08T16:53:09.081Z,21.92
2023-02-08T16:55:43.708Z,24.27
2023-02-08T16:58:16.847Z,20.65
2023-02-08T17:00:49.773Z,22.77
2023-02-08T17:06:01.705Z,20.38
2023-02-08T17:08:36.307Z,20.30
2023-02-08T17:11:14.489Z,20.25
2023-02-08T17:16:39.920Z,23.83
2023-02-08T17:19:20.239Z,20.48
2023-02-08T17:22:15.724Z,22.27
2023-02-08T17:28:02.394Z,18.90
2023-02-08T17:30:46.244Z,22.23
2023-02-08T17:33:24.397Z,20.60
2023-02-08T17:36:22.739Z,21.08
2023-02-08T17:39:22.888Z,19.45
2023-02-08T17:42:13.731Z,19.25
2023-02-08T17:45:17.232Z,19.75
2023-02-08T17:48:26.821Z,20.70
2023-02-08T17:51:01.323Z,19.55
2023-02-08T17:53:42.352Z,17.92
2023-02-08T17:56:20.520Z,20.55
2023-02-08T17:58:58.425Z,18.90
2023-02-08T18:01:35.065Z,18.45
2023-02-08T18:04:14.595Z,19.20
2023-02-08T18:07:06.048Z,18.02
2023-02-08T18:09:44.686Z,17.20
2023-02-08T18:15:55.086Z,18.48
2023-02-08T18:19:03.653Z,18.77
2023-02-08T18:21:46.722Z,17.35
2023-02-08T18:27:40.930Z,17.50
2023-02-08T18:30:21.696Z,16.00
2023-02-08T18:33:25.450Z,17.15
2023-02-08T18:36:19.937Z,16.92
2023-02-08T18:39:25.281Z,14.68
2023-02-08T18:42:09.444Z,16.15
2023-02-08T18:44:49.670Z,14.18
2023-02-08T18:47:29.710Z,16.85
2023-02-08T18:50:20.907Z,14.05
2023-02-08T18:53:07.577Z,18.02
2023-02-08T18:56:07.115Z,16.90
2023-02-08T18:58:46.862Z,15.73
2023-02-08T19:01:24.436Z,14.95
2023-02-08T19:04:05.416Z,17.52
2023-02-08T19:06:38.850Z,22.40
2023-02-08T19:09:19.485Z,15.63
2023-02-08T19:12:05.684Z,16.00
2023-02-08T19:15:06.857Z,15.00
2023-02-08T19:17:43.801Z,17.80
2023-02-08T19:20:40.131Z,15.40
2023-02-08T19:23:29.069Z,15.25
2023-02-08T19:26:13.296Z,16.73
2023-02-08T19:29:27.402Z,16.27
2023-02-08T19:32:10.856Z,15.85
2023-02-08T19:35:00.888Z,14.52
2023-02-08T19:37:44.354Z,13.65
2023-02-08T19:40:29.342Z,14.73
2023-02-08T19:43:31.765Z,16.15
2023-02-08T19:46:10.769Z,16.10
2023-02-08T19:48:45.224Z,14.20
2023-02-08T19:51:25.027Z,17.85
2023-02-08T19:57:18.923Z,16.98
2023-02-08T19:59:59.384Z,15.65
2023-02-08T20:02:32.952Z,16.98
2023-02-08T20:05:07.775Z,16.85
2023-02-08T20:07:44.776Z,14.48
2023-02-08T20:10:17.748Z,14.85
2023-02-08T20:12:50.959Z,14.38
2023-02-08T20:15:26.544Z,14.77
2023-02-08T20:17:59.741Z,13.80
2023-02-08T20:20:44.376Z,15.30
2023-02-08T20:23:34.918Z,13.60
2023-02-08T20:26:30.892Z,14.00
2023-02-08T20:29:24.315Z,13.88
2023-02-08T20:35:03.195Z,13.40
2023-02-08T20:37:38.324Z,12.15
2023-02-08T20:40:17.160Z,12.23
2023-02-08T20:43:05.158Z,14.10
2023-02-08T20:48:42.272Z,15.02
2023-02-08T20:51:25.889Z,12.98
2023-02-08T20:54:02.146Z,12.65
2023-02-08T20:56:38.263Z,13.38
2023-02-08T20:59:15.911Z,11.40
2023-02-08T21:01:51.263Z,15.25
2023-02-08T21:04:27.253Z,14.68
2023-02-08T21:07:00.528Z,12.88
2023-02-08T21:09:33.852Z,11.55
2023-02-08T21:12:10.277Z,12.73
2023-02-08T21:14:45.690Z,13.48
2023-02-08T21:17:18.752Z,12.05
2023-02-08T21:19:52.079Z,14.50
2023-02-08T21:22:26.603Z,12.75
2023-02-08T21:25:01.215Z,11.23
2023-02-08T21:27:37.613Z,13.05
2023-02-08T21:30:11.626Z,12.85
2023-02-08T21:32:44.474Z,11.52
2023-02-08T21:35:17.656Z,12.80
2023-02-08T21:37:50.556Z,12.40
2023-02-08T21:42:59.343Z,13.13
2023-02-08T21:45:35.094Z,13.63
2023-02-08T21:48:07.905Z,12.48
2023-02-08T21:53:50.260Z,12.23
2023-02-08T21:56:23.357Z,11.75
2023-02-08T21:58:57.980Z,14.35
2023-02-08T22:01:31.553Z,11.98
2023-02-08T22:04:04.748Z,11.38
2023-02-08T22:06:37.872Z,11.27
2023-02-08T22:09:10.984Z,13.80
2023-02-08T22:11:46.067Z,14.38
2023-02-08T22:14:20.636Z,12.40
2023-02-08T22:16:53.709Z,12.40
2023-02-08T22:19:29.151Z,12.15
2023-02-08T22:22:02.459Z,12.50
2023-02-08T22:24:36.113Z,11.88
2023-02-08T22:27:08.819Z,11.95
2023-02-08T22:29:43.530Z,11.48
2023-02-08T22:32:17.297Z,11.95
2023-02-08T22:34:50.451Z,13.05
2023-02-08T22:37:23.530Z,12.85
2023-02-08T22:39:56.348Z,12.15
2023-02-08T22:42:29.111Z,12.20
2023-02-08T22:45:03.208Z,11.77
2023-02-08T22:47:36.674Z,17.05
2023-02-08T22:50:10.572Z,12.30
2023-02-08T22:52:43.346Z,11.90
2023-02-08T22:57:48.777Z,9.80
2023-02-08T23:00:23.269Z,15.00
2023-02-08T23:02:56.200Z,12.93
2023-02-08T23:08:01.617Z,13.07
2023-02-08T23:10:34.526Z,13.10
2023-02-08T23:15:44.066Z,13.15
2023-02-08T23:18:16.773Z,12.05
2023-02-08T23:20:50.044Z,13.13
2023-02-08T23:23:23.499Z,13.02
2023-02-08T23:25:56.226Z,14.00
2023-02-08T23:28:28.977Z,12.52
2023-02-08T23:33:39.340Z,13.30
2023-02-08T23:36:15.060Z,12.48
2023-02-08T23:38:48.351Z,13.63
2023-02-08T23:41:23.321Z,12.50
2023-02-08T23:43:56.031Z,12.77
2023-02-08T23:46:30.827Z,12.48
2023-02-08T23:49:03.719Z,14.02
2023-02-08T23:54:09.303Z,9.55
2023-02-08T23:56:42.089Z,13.93
2023-02-08T23:59:14.798Z,14.07
